Main page
METAR-TAF:

METAR-TAF

Airports :

Andahuaylas Airport

Andahuaylas, Peru

latitude: 13-43S, longitude: 073-21W, elevation: 3444 m

Current weather observation

The report was made 1 hour and 57 minutes ago, at 19:00 UTC
Wind 11 kt from the North/Northeast
Temperature 17°C
Humidity 48%
Pressure 1035 hPa
Visibility 10 km or more
no clouds below 1500 m and no cumulonimbus

METAR: SPHY 161900Z 02011KT CAVOK 17/06 Q1035 RMK BIRD HAZARD RWY03/21 PP000

Time: 15:57 (20:57 UTC)

Forecast

The report was made 3 hours and 57 minutes ago, at 17:00 UTC
Forecast valid from 16 at 18 UTC to 17 at 18 UTC
Wind 6 kt from the North
Visibility 10 km or more
no clouds below 1500 m and no cumulonimbus

TAF: SPHY 161700Z 1618/1718 36006KT CAVOK TX18/1620Z TNM03/1711Z

Weather observations and forecasts of more than 4000 airports (METAR and TAF reports).

The available stations are represented by yellow and red dots on the map.

Hover mouse over dot to see the name of the station.

Then click to see weather observations and forecasts.

To change the map : click on the green buttons with a black cross to zoom in, on the green button with a dash to zoom out, or on the green arrows for adjacent maps.


METAR-TAF: